SKRH/RCH METAR and TAF weather

Enter ICAO airport designator
Station Type Date Time Source
SKRH METAR 2019/10/23 12:00 UTC NOAA

SKRH 231200Z 13004KT 9999 FEW015 BKN100 25/23 A2985


Station Type Date Time Source
SKRH Decoded METAR 2019/10/23 12:00 UTC NOAA

Riohacha / Almirante Padilla, Colombia (SKRH) 11-32N 072-56W 4M
Oct 23, 2019 - 08:00 AM EDT / 2019.10.23 1200 UTC
Wind: from the SE (130 degrees) at 5 MPH (4 KT):0
Visibility: greater than 7 mile(s):0
Sky conditions: mostly cloudy
Temperature: 77 F (25 C)
Dew Point: 73 F (23 C)
Relative Humidity: 88%
Pressure (altimeter): 29.85 in. Hg (1010 hPa)
ob: SKRH 231200Z 13004KT 9999 FEW015 BKN100 25/23 A2985
cycle: 12

Station Type Date Time Source
SKRH TAF 2015/07/31 18:51 UTC NOAA

TAF SKRH 311700Z 3118/0118 07010KT 9999 SCT017
TEMPO 3120/0103 09015KT CAVOK
TEMPO 0109/0114 9000 BKN015 TX36/3118Z TN28/0110Z

Example: see airport list